createdAt,value
2023-03-31T00:01:13.172Z,10.20
2023-03-31T00:03:44.575Z,8.85
2023-03-31T00:06:18.338Z,9.40
2023-03-31T00:08:51.566Z,8.48
2023-03-31T00:11:23.163Z,7.90
2023-03-31T00:13:50.734Z,14.30
2023-03-31T00:16:18.372Z,10.15
2023-03-31T00:18:47.805Z,12.43
2023-03-31T00:21:33.879Z,12.65
2023-03-31T00:24:03.650Z,12.98
2023-03-31T00:26:32.570Z,11.32
2023-03-31T00:29:00.517Z,12.90
2023-03-31T00:31:29.339Z,18.17
2023-03-31T00:33:56.809Z,14.43
2023-03-31T00:36:28.720Z,17.23
2023-03-31T00:39:08.777Z,13.85
2023-03-31T00:41:39.220Z,14.18
2023-03-31T00:44:18.948Z,15.15
2023-03-31T00:47:07.995Z,15.60
2023-03-31T00:49:51.837Z,19.15
2023-03-31T00:52:23.847Z,16.27
2023-03-31T00:54:59.215Z,16.42
2023-03-31T00:57:29.889Z,19.80
2023-03-31T01:00:01.744Z,17.88
2023-03-31T01:02:29.476Z,20.92
2023-03-31T01:05:02.227Z,20.13
2023-03-31T01:07:43.292Z,21.83
2023-03-31T01:10:12.307Z,23.20
2023-03-31T01:12:42.601Z,23.40
2023-03-31T01:15:10.642Z,22.10
2023-03-31T01:17:38.818Z,22.02
2023-03-31T01:20:23.327Z,22.83
2023-03-31T01:23:22.558Z,23.90
2023-03-31T01:25:52.741Z,22.92
2023-03-31T01:28:37.942Z,23.25
2023-03-31T01:31:27.152Z,19.70
2023-03-31T01:34:29.834Z,24.08
2023-03-31T01:37:03.299Z,24.15
2023-03-31T01:39:48.660Z,23.58
2023-03-31T01:42:29.731Z,24.42
2023-03-31T01:45:12.406Z,21.20
2023-03-31T01:47:51.795Z,25.10
2023-03-31T01:50:28.823Z,21.65
2023-03-31T01:53:04.011Z,21.40
2023-03-31T01:55:42.457Z,21.48
2023-03-31T01:58:17.070Z,28.05
2023-03-31T02:00:56.872Z,24.65
2023-03-31T02:03:48.473Z,22.73
2023-03-31T02:06:24.661Z,25.70
2023-03-31T02:09:04.973Z,20.55
2023-03-31T02:11:34.859Z,21.23
2023-03-31T02:14:08.363Z,24.15
2023-03-31T02:16:42.018Z,24.35
2023-03-31T02:19:10.739Z,22.17
2023-03-31T02:21:39.860Z,19.98
2023-03-31T02:24:12.059Z,19.92
2023-03-31T02:26:52.239Z,22.30
2023-03-31T02:29:20.275Z,22.10
2023-03-31T02:32:18.203Z,22.30
2023-03-31T02:34:45.704Z,17.42
2023-03-31T02:37:13.640Z,20.52
2023-03-31T02:39:46.702Z,22.02
2023-03-31T02:42:14.575Z,18.75
2023-03-31T02:44:42.144Z,26.70
2023-03-31T02:47:15.563Z,24.60
2023-03-31T02:49:50.554Z,18.70
2023-03-31T02:52:47.250Z,17.42
2023-03-31T02:55:25.132Z,14.63
2023-03-31T02:58:12.606Z,20.38
2023-03-31T03:01:03.816Z,19.17
2023-03-31T03:04:10.309Z,19.10
2023-03-31T03:07:09.244Z,20.13
2023-03-31T03:09:43.785Z,19.30
2023-03-31T03:12:17.528Z,19.15
2023-03-31T03:15:11.234Z,21.65
2023-03-31T03:17:43.008Z,21.33
2023-03-31T03:20:11.657Z,18.30
2023-03-31T03:22:40.685Z,24.92
2023-03-31T03:25:11.561Z,19.02
2023-03-31T03:27:39.089Z,21.13
2023-03-31T03:30:09.743Z,20.02
2023-03-31T03:32:37.408Z,19.65
2023-03-31T03:35:06.559Z,17.98
2023-03-31T03:37:34.097Z,16.90
2023-03-31T03:40:01.673Z,17.33
2023-03-31T03:42:28.855Z,15.65
2023-03-31T03:44:56.537Z,15.20
2023-03-31T03:47:23.768Z,16.48
2023-03-31T03:49:51.388Z,27.83
2023-03-31T03:52:18.611Z,21.92
2023-03-31T03:54:45.995Z,15.88
2023-03-31T03:57:13.169Z,14.05
2023-03-31T03:59:40.776Z,15.23
2023-03-31T04:02:08.096Z,15.02
2023-03-31T04:04:35.600Z,14.63
2023-03-31T04:07:02.771Z,13.95
2023-03-31T04:09:30.647Z,17.42
2023-03-31T04:11:57.854Z,13.75
2023-03-31T04:14:26.105Z,12.57
2023-03-31T04:16:56.333Z,20.20
2023-03-31T04:19:26.041Z,14.38
2023-03-31T04:21:58.968Z,18.77
2023-03-31T04:24:32.770Z,16.08
2023-03-31T04:27:00.802Z,21.17
2023-03-31T04:29:28.345Z,13.27
2023-03-31T04:31:59.284Z,17.48
2023-03-31T04:34:35.216Z,13.40
2023-03-31T04:37:03.552Z,18.52
2023-03-31T04:39:31.603Z,17.15
2023-03-31T04:42:00.902Z,15.63
2023-03-31T04:44:29.005Z,13.63
2023-03-31T04:46:56.759Z,14.50
2023-03-31T04:49:24.217Z,13.63
2023-03-31T04:51:51.421Z,12.70
2023-03-31T04:54:19.311Z,12.25
2023-03-31T04:56:46.567Z,18.10
2023-03-31T04:59:14.176Z,14.38
2023-03-31T05:01:45.677Z,17.00
2023-03-31T05:04:13.478Z,16.10
2023-03-31T05:06:41.104Z,15.38
2023-03-31T05:09:09.828Z,15.73
2023-03-31T05:11:38.387Z,13.90
2023-03-31T05:14:06.133Z,12.00
2023-03-31T05:16:33.686Z,14.27
2023-03-31T05:19:01.269Z,19.80
2023-03-31T05:21:30.545Z,17.15
2023-03-31T05:23:58.437Z,14.63
2023-03-31T05:26:26.328Z,19.73
2023-03-31T05:28:54.342Z,14.00
2023-03-31T05:31:21.586Z,13.40
2023-03-31T05:33:49.153Z,16.98
2023-03-31T05:36:17.956Z,16.48
2023-03-31T05:38:46.002Z,19.40
2023-03-31T05:41:13.184Z,15.75
2023-03-31T05:43:40.714Z,13.73
2023-03-31T05:46:09.254Z,11.93
2023-03-31T05:48:38.056Z,11.32
2023-03-31T05:51:05.799Z,13.68
2023-03-31T05:53:34.158Z,14.93
2023-03-31T05:56:03.686Z,14.65
2023-03-31T05:58:31.475Z,19.35
2023-03-31T06:01:10.423Z,15.10
2023-03-31T06:03:44.157Z,18.27
2023-03-31T06:06:13.377Z,16.55
2023-03-31T06:08:41.565Z,16.25
2023-03-31T06:11:11.056Z,15.07
2023-03-31T06:13:41.154Z,10.38
2023-03-31T06:16:11.124Z,13.45
2023-03-31T06:18:39.658Z,13.00
2023-03-31T06:21:08.046Z,13.05
2023-03-31T06:23:35.769Z,20.25
2023-03-31T06:26:06.334Z,15.27
2023-03-31T06:28:35.432Z,14.35
2023-03-31T06:31:12.600Z,13.68
2023-03-31T06:33:41.835Z,17.95
2023-03-31T06:36:10.640Z,14.05
2023-03-31T06:38:38.665Z,18.25
2023-03-31T06:41:06.829Z,12.27
2023-03-31T06:43:35.026Z,19.63
2023-03-31T06:46:02.211Z,10.77
2023-03-31T06:48:29.703Z,11.93
2023-03-31T06:51:00.563Z,18.50
2023-03-31T06:53:28.765Z,13.15
2023-03-31T06:55:56.238Z,17.08
2023-03-31T06:58:23.992Z,14.73
2023-03-31T07:00:52.916Z,12.23
2023-03-31T07:03:25.125Z,12.85
2023-03-31T07:05:54.554Z,16.02
2023-03-31T07:08:22.972Z,17.20
2023-03-31T07:10:57.787Z,18.35
2023-03-31T07:13:26.602Z,10.73
2023-03-31T07:15:54.350Z,15.75
2023-03-31T07:18:26.347Z,13.23
2023-03-31T07:20:53.911Z,13.00
2023-03-31T07:23:21.451Z,13.98
2023-03-31T07:25:48.730Z,10.20
2023-03-31T07:28:16.954Z,17.65
2023-03-31T07:30:44.435Z,11.85
2023-03-31T07:33:13.174Z,9.38
2023-03-31T07:35:41.930Z,18.90
2023-03-31T07:38:10.857Z,17.83
2023-03-31T07:40:39.368Z,11.77
2023-03-31T07:43:07.079Z,14.20
2023-03-31T07:45:34.572Z,11.20
2023-03-31T07:48:02.309Z,13.55
2023-03-31T07:50:29.848Z,13.30
2023-03-31T07:52:58.687Z,14.68
2023-03-31T07:55:27.358Z,16.23
2023-03-31T07:57:54.954Z,13.50
2023-03-31T08:00:22.619Z,16.33
2023-03-31T08:02:50.201Z,12.50
2023-03-31T08:05:20.955Z,15.27
2023-03-31T08:07:50.759Z,11.23
2023-03-31T08:10:22.082Z,16.80
2023-03-31T08:12:49.626Z,14.50
2023-03-31T08:15:17.373Z,13.98
2023-03-31T08:17:44.904Z,16.35
2023-03-31T08:20:12.872Z,13.57
2023-03-31T08:22:40.868Z,11.50
2023-03-31T08:25:09.823Z,9.98
2023-03-31T08:27:40.092Z,13.43
2023-03-31T08:30:09.871Z,10.30
2023-03-31T08:32:37.688Z,10.07
2023-03-31T08:35:05.405Z,15.00
2023-03-31T08:37:34.039Z,16.45
2023-03-31T08:40:01.458Z,13.70
2023-03-31T08:42:29.008Z,11.43
2023-03-31T08:45:05.026Z,9.55
2023-03-31T08:47:36.683Z,11.23
2023-03-31T08:50:23.685Z,11.25
2023-03-31T08:53:31.237Z,12.05
2023-03-31T08:55:59.831Z,8.68
2023-03-31T08:58:48.185Z,7.05
2023-03-31T09:01:24.137Z,12.02
2023-03-31T09:04:16.229Z,15.70
2023-03-31T09:06:49.492Z,16.88
2023-03-31T09:09:56.822Z,8.93
2023-03-31T09:12:29.800Z,12.23
2023-03-31T09:15:02.756Z,11.52
2023-03-31T09:17:33.847Z,13.75
2023-03-31T09:20:08.829Z,18.97
2023-03-31T09:22:41.594Z,17.15
2023-03-31T09:25:27.502Z,12.73
2023-03-31T09:27:58.189Z,10.07
2023-03-31T09:30:29.451Z,9.25
2023-03-31T09:33:19.019Z,9.85
2023-03-31T09:35:47.025Z,12.48
2023-03-31T09:38:16.199Z,9.85
2023-03-31T09:40:44.268Z,10.68
2023-03-31T09:43:29.173Z,8.35
2023-03-31T09:46:09.328Z,9.73
2023-03-31T09:48:38.489Z,12.93
2023-03-31T09:51:10.196Z,10.63
2023-03-31T09:53:46.362Z,17.38
2023-03-31T09:56:14.426Z,14.38
2023-03-31T09:58:43.158Z,10.88
2023-03-31T10:01:15.210Z,15.07
2023-03-31T10:03:51.008Z,9.15
2023-03-31T10:06:19.314Z,10.65
2023-03-31T10:08:49.376Z,8.20
2023-03-31T10:11:17.177Z,9.00
2023-03-31T10:13:47.154Z,10.85
2023-03-31T10:16:22.997Z,14.40
2023-03-31T10:18:50.829Z,12.23
2023-03-31T10:21:23.720Z,13.40
2023-03-31T10:23:51.827Z,18.55
2023-03-31T10:26:22.505Z,7.30
2023-03-31T10:28:52.770Z,10.23
2023-03-31T10:31:24.279Z,10.60
2023-03-31T10:33:52.773Z,10.68
2023-03-31T10:36:28.648Z,13.63
2023-03-31T10:38:56.654Z,10.23
2023-03-31T10:41:28.319Z,9.23
2023-03-31T10:44:01.247Z,12.20
2023-03-31T10:46:52.939Z,16.88
2023-03-31T10:49:22.717Z,8.48
2023-03-31T10:51:52.854Z,8.32
2023-03-31T10:54:20.668Z,7.35
2023-03-31T10:56:51.393Z,8.02
2023-03-31T10:59:29.845Z,7.53
2023-03-31T11:02:01.007Z,10.63
2023-03-31T11:04:37.589Z,5.60
2023-03-31T11:07:05.670Z,6.97
2023-03-31T11:09:36.780Z,11.35
2023-03-31T11:12:19.718Z,4.95
2023-03-31T11:14:57.107Z,6.45
2023-03-31T11:17:34.018Z,5.13
2023-03-31T11:20:02.314Z,10.57
2023-03-31T11:22:38.448Z,6.57
2023-03-31T11:25:28.975Z,7.57
2023-03-31T11:28:15.532Z,5.78
2023-03-31T11:30:53.203Z,12.05
2023-03-31T11:33:50.792Z,6.60
2023-03-31T11:37:08.516Z,5.82
2023-03-31T11:39:51.208Z,7.45
2023-03-31T11:42:35.380Z,7.55
2023-03-31T11:45:13.984Z,8.60
2023-03-31T11:47:44.634Z,9.98
2023-03-31T11:50:16.700Z,8.80
2023-03-31T11:53:05.938Z,8.32
2023-03-31T11:55:34.546Z,6.97
2023-03-31T11:58:06.197Z,10.52
2023-03-31T12:00:41.581Z,8.40
2023-03-31T12:03:23.711Z,11.43
2023-03-31T12:06:02.823Z,5.60
2023-03-31T12:08:33.569Z,7.18
2023-03-31T12:11:23.514Z,4.80
2023-03-31T12:14:09.658Z,7.47
2023-03-31T12:17:08.482Z,11.73
2023-03-31T12:19:48.788Z,5.22
2023-03-31T12:22:28.442Z,6.53
2023-03-31T12:24:56.080Z,9.85
2023-03-31T12:27:33.649Z,19.75
2023-03-31T12:30:05.848Z,12.93
2023-03-31T12:32:40.736Z,7.13
2023-03-31T12:35:20.322Z,7.82
2023-03-31T12:38:03.877Z,7.72
2023-03-31T12:40:44.269Z,7.13
2023-03-31T12:43:48.608Z,13.18
2023-03-31T12:46:26.450Z,11.85
2023-03-31T12:49:00.152Z,10.82
2023-03-31T12:51:40.719Z,10.30
2023-03-31T12:54:39.090Z,8.48
2023-03-31T12:57:09.266Z,6.20
2023-03-31T12:59:41.735Z,12.35
2023-03-31T13:02:17.387Z,59.10
2023-03-31T13:04:45.003Z,68.47
2023-03-31T13:07:29.107Z,154.32
2023-03-31T13:09:58.365Z,49.13
2023-03-31T13:12:30.960Z,205.20
2023-03-31T13:17:57.054Z,250.52
2023-03-31T13:20:25.634Z,280.63
2023-03-31T13:23:01.408Z,418.15
2023-03-31T13:25:32.171Z,206.98
2023-03-31T13:28:05.130Z,549.38
2023-03-31T13:30:41.850Z,676.70
2023-03-31T13:33:15.882Z,185.23
2023-03-31T13:35:53.023Z,583.90
2023-03-31T13:38:35.481Z,429.90
2023-03-31T13:41:26.602Z,289.75
2023-03-31T13:44:06.383Z,188.48
2023-03-31T13:46:58.355Z,59.30
2023-03-31T13:49:26.360Z,77.70
2023-03-31T13:52:00.993Z,46.10
2023-03-31T13:54:37.249Z,45.28
2023-03-31T13:57:05.106Z,43.08
2023-03-31T13:59:42.382Z,12.05
2023-03-31T14:02:13.244Z,25.05
2023-03-31T14:04:43.899Z,17.35
2023-03-31T14:07:18.680Z,25.08
2023-03-31T14:09:50.115Z,4.95
2023-03-31T14:12:31.510Z,6.30
2023-03-31T14:14:58.969Z,10.52
2023-03-31T14:17:38.652Z,7.28
2023-03-31T14:20:31.460Z,6.88
2023-03-31T14:23:20.816Z,6.45
2023-03-31T14:26:06.931Z,10.80
2023-03-31T14:29:24.950Z,9.45
2023-03-31T14:32:41.243Z,13.85
2023-03-31T14:35:30.018Z,6.20
2023-03-31T14:37:57.784Z,6.50
2023-03-31T14:40:25.891Z,7.53
2023-03-31T14:42:53.138Z,5.13
2023-03-31T14:45:24.990Z,9.52
2023-03-31T14:48:02.740Z,10.63
2023-03-31T14:50:34.439Z,7.15
2023-03-31T14:53:02.535Z,5.87
2023-03-31T14:55:54.169Z,6.00
2023-03-31T14:58:50.584Z,7.45
2023-03-31T15:01:24.756Z,6.35
2023-03-31T15:03:53.664Z,5.35
2023-03-31T15:06:27.052Z,2.70
2023-03-31T15:08:57.355Z,10.10
2023-03-31T15:11:28.119Z,6.03
2023-03-31T15:16:46.138Z,12.18
2023-03-31T15:19:23.121Z,9.35
2023-03-31T15:22:06.104Z,8.00
2023-03-31T15:24:33.560Z,8.02
2023-03-31T15:27:03.367Z,10.52
2023-03-31T15:29:43.270Z,6.70
2023-03-31T15:32:37.827Z,11.32
2023-03-31T15:37:56.496Z,10.98
2023-03-31T15:40:28.259Z,7.28
2023-03-31T15:43:13.328Z,7.43
2023-03-31T15:45:54.935Z,8.82
2023-03-31T15:48:29.051Z,15.13
2023-03-31T15:51:24.171Z,16.33
2023-03-31T15:53:53.796Z,16.98
2023-03-31T15:56:48.000Z,13.35
2023-03-31T15:59:37.931Z,15.90
2023-03-31T16:02:13.605Z,6.72
2023-03-31T16:04:41.529Z,9.82
2023-03-31T16:07:24.865Z,5.53
2023-03-31T16:09:57.384Z,11.05
2023-03-31T16:12:30.299Z,8.93
2023-03-31T16:15:03.967Z,9.77
2023-03-31T16:17:39.397Z,4.93
2023-03-31T16:20:37.209Z,10.30
2023-03-31T16:23:16.339Z,5.93
2023-03-31T16:25:44.733Z,5.40
2023-03-31T16:28:21.557Z,6.18
2023-03-31T16:30:49.317Z,11.68
2023-03-31T16:33:23.240Z,6.38
2023-03-31T16:35:53.807Z,6.78
2023-03-31T16:38:23.156Z,8.00
2023-03-31T16:40:56.384Z,9.63
2023-03-31T16:43:27.248Z,10.55
2023-03-31T16:46:04.110Z,7.85
2023-03-31T16:48:34.946Z,11.98
2023-03-31T16:51:02.712Z,9.15
2023-03-31T16:53:35.872Z,6.90
2023-03-31T16:56:08.255Z,13.32
2023-03-31T16:58:37.806Z,16.48
2023-03-31T17:01:08.290Z,14.02
2023-03-31T17:03:37.249Z,10.13
2023-03-31T17:06:08.380Z,15.73
2023-03-31T17:08:35.715Z,11.88
2023-03-31T17:11:07.078Z,13.70
2023-03-31T17:13:34.751Z,8.17
2023-03-31T17:16:16.520Z,11.88
2023-03-31T17:18:46.398Z,10.35
2023-03-31T17:21:19.762Z,9.13
2023-03-31T17:23:47.736Z,8.18
2023-03-31T17:26:16.223Z,9.20
2023-03-31T17:28:43.680Z,11.68
2023-03-31T17:31:16.869Z,5.40
2023-03-31T17:33:44.384Z,9.80
2023-03-31T17:36:12.273Z,10.43
2023-03-31T17:38:40.070Z,10.02
2023-03-31T17:41:10.664Z,8.98
2023-03-31T17:43:38.234Z,9.45
2023-03-31T17:46:11.088Z,12.38
2023-03-31T17:48:39.854Z,14.98
2023-03-31T17:51:09.297Z,10.57
2023-03-31T17:53:36.808Z,6.45
2023-03-31T17:56:05.142Z,8.32
2023-03-31T17:58:32.788Z,7.18
2023-03-31T18:01:00.692Z,8.45
2023-03-31T18:03:29.263Z,6.35
2023-03-31T18:05:57.642Z,11.32
2023-03-31T18:08:24.989Z,9.55
2023-03-31T18:10:52.523Z,11.45
2023-03-31T18:13:19.702Z,14.23
2023-03-31T18:15:51.523Z,10.52
2023-03-31T18:18:20.703Z,15.70
2023-03-31T18:20:48.273Z,14.27
2023-03-31T18:23:16.127Z,15.60
2023-03-31T18:25:47.157Z,8.93
2023-03-31T18:28:16.149Z,18.23
2023-03-31T18:30:44.208Z,17.27
2023-03-31T18:33:11.630Z,23.55
2023-03-31T18:35:40.020Z,24.50
2023-03-31T18:38:07.761Z,22.00
2023-03-31T18:40:36.037Z,20.42
2023-03-31T18:43:03.578Z,26.40
2023-03-31T18:45:31.086Z,21.83
2023-03-31T18:47:58.585Z,62.78
2023-03-31T18:50:26.480Z,68.78
2023-03-31T18:52:54.679Z,34.67
2023-03-31T18:55:23.323Z,28.05
2023-03-31T18:57:51.262Z,56.92
2023-03-31T19:00:18.988Z,45.13
2023-03-31T19:02:46.835Z,19.77
2023-03-31T19:05:14.669Z,24.83
2023-03-31T19:07:41.966Z,14.95
2023-03-31T19:10:09.718Z,18.98
2023-03-31T19:12:37.257Z,20.95
2023-03-31T19:15:05.645Z,21.63
2023-03-31T19:17:33.021Z,20.45
2023-03-31T19:20:00.696Z,18.08
2023-03-31T19:22:29.782Z,26.35
2023-03-31T19:24:57.435Z,27.40
2023-03-31T19:27:24.764Z,22.85
2023-03-31T19:29:52.364Z,25.75
2023-03-31T19:32:19.706Z,34.10
2023-03-31T19:34:47.221Z,119.50
2023-03-31T19:37:15.390Z,64.60
2023-03-31T19:39:43.043Z,181.80
2023-03-31T19:42:10.519Z,35.80
2023-03-31T19:44:38.112Z,88.25
2023-03-31T19:47:05.530Z,101.00
2023-03-31T19:49:33.095Z,110.95
2023-03-31T19:52:00.421Z,203.02
2023-03-31T19:54:27.830Z,134.10
2023-03-31T19:56:55.133Z,118.63
2023-03-31T19:59:22.622Z,80.07
2023-03-31T20:01:49.930Z,52.58
2023-03-31T20:04:18.229Z,91.93
2023-03-31T20:06:47.009Z,49.65
2023-03-31T20:09:15.709Z,40.35
2023-03-31T20:11:43.555Z,35.03
2023-03-31T20:14:11.288Z,34.35
2023-03-31T20:16:38.689Z,37.30
2023-03-31T20:19:06.711Z,29.38
2023-03-31T20:21:36.783Z,33.42
2023-03-31T20:24:05.318Z,31.15
2023-03-31T20:26:34.150Z,28.15
2023-03-31T20:29:02.758Z,25.10
2023-03-31T20:31:39.943Z,23.15
2023-03-31T20:34:14.047Z,22.75
2023-03-31T20:36:43.506Z,20.42
2023-03-31T20:39:13.432Z,16.15
2023-03-31T20:41:41.109Z,19.92
2023-03-31T20:44:13.528Z,19.17
2023-03-31T20:46:43.761Z,25.92
2023-03-31T20:49:12.046Z,22.23
2023-03-31T20:51:39.672Z,23.63
2023-03-31T20:54:08.349Z,26.48
2023-03-31T20:56:38.184Z,27.95
2023-03-31T20:59:09.665Z,29.08
2023-03-31T21:01:37.712Z,23.73
2023-03-31T21:04:07.199Z,24.17
2023-03-31T21:06:43.304Z,22.38
2023-03-31T21:09:12.382Z,26.92
2023-03-31T21:11:40.788Z,24.70
2023-03-31T21:14:15.694Z,24.35
2023-03-31T21:16:43.091Z,26.42
2023-03-31T21:19:11.357Z,22.10
2023-03-31T21:21:41.183Z,24.13
2023-03-31T21:24:13.231Z,27.05
2023-03-31T21:26:40.911Z,21.45
2023-03-31T21:29:08.424Z,19.05
2023-03-31T21:31:37.343Z,22.13
2023-03-31T21:34:05.288Z,19.67
2023-03-31T21:36:32.519Z,21.40
2023-03-31T21:38:59.933Z,19.48
2023-03-31T21:41:30.211Z,17.83
2023-03-31T21:44:00.590Z,25.80
2023-03-31T21:46:32.007Z,17.27
2023-03-31T21:48:59.809Z,19.77
2023-03-31T21:51:28.514Z,16.60
2023-03-31T21:53:56.469Z,23.83
2023-03-31T21:56:25.564Z,19.35
2023-03-31T21:58:53.290Z,23.80
2023-03-31T22:01:21.829Z,15.70
2023-03-31T22:03:50.215Z,20.60
2023-03-31T22:06:17.522Z,17.23
2023-03-31T22:08:45.661Z,20.88
2023-03-31T22:11:13.378Z,20.70
2023-03-31T22:13:41.532Z,20.42
2023-03-31T22:16:22.035Z,19.75
2023-03-31T22:18:50.629Z,15.30
2023-03-31T22:21:21.511Z,20.10
2023-03-31T22:23:51.807Z,20.75
2023-03-31T22:26:19.165Z,19.73
2023-03-31T22:28:46.687Z,19.85
2023-03-31T22:31:14.119Z,16.30
2023-03-31T22:33:41.684Z,18.77
2023-03-31T22:36:09.022Z,19.33
2023-03-31T22:38:36.597Z,18.27
2023-03-31T22:41:03.962Z,21.17
2023-03-31T22:43:32.060Z,19.98
2023-03-31T22:46:08.460Z,19.27
2023-03-31T22:48:36.036Z,20.48
2023-03-31T22:51:05.801Z,18.45
2023-03-31T22:53:33.715Z,19.95
2023-03-31T22:56:11.261Z,21.13
2023-03-31T22:58:39.090Z,21.73
2023-03-31T23:01:09.782Z,33.22
2023-03-31T23:03:37.728Z,36.92
2023-03-31T23:06:05.614Z,39.55
2023-03-31T23:08:35.640Z,55.22
2023-03-31T23:11:06.009Z,24.80
2023-03-31T23:13:34.565Z,23.67
2023-03-31T23:16:12.167Z,22.88
2023-03-31T23:18:44.312Z,27.42
2023-03-31T23:21:12.827Z,21.67
2023-03-31T23:23:40.448Z,16.95
2023-03-31T23:26:08.389Z,28.58
2023-03-31T23:28:37.150Z,18.20
2023-03-31T23:31:04.756Z,21.80
2023-03-31T23:33:34.188Z,22.42
2023-03-31T23:36:04.214Z,23.55
2023-03-31T23:38:32.291Z,40.88
2023-03-31T23:41:00.621Z,22.35
2023-03-31T23:43:28.851Z,22.95
2023-03-31T23:45:56.504Z,35.55
2023-03-31T23:48:24.145Z,28.20
2023-03-31T23:50:51.374Z,21.92
2023-03-31T23:53:18.889Z,27.52
2023-03-31T23:56:06.732Z,18.88
2023-03-31T23:58:34.881Z,26.17
